This is the latest recevied weather packets stored in our database for station/object WW5JC. If no packets are shown the sender has not sent any weather packets the latest 10 day(s).
| Time | Temp. | Humidity | Pressure | Rain* | Wind** | Luminosity | Snow |
|---|---|---|---|---|---|---|---|
| 1777910647 | 22.78° C | 57% | 1015.3 hPa | 0 mm | - | 583 W/m² | - |
| 1777910343 | 22.22° C | 59% | 1015.3 hPa | 0 mm | - | 568 W/m² | - |
| 1777910040 | 21.67° C | 58% | 1015.2 hPa | 0 mm | - | 532 W/m² | - |
| 1777909737 | 21.67° C | 57% | 1015.3 hPa | 0 mm | - | 516 W/m² | - |
| 1777909434 | 21.67° C | 57% | 1015.2 hPa | 0 mm | - | 495 W/m² | - |
| 1777909133 | 21.67° C | 58% | 1015.4 hPa | 0 mm | - | 526 W/m² | - |
| 1777908830 | 21.67° C | 61% | 1015.3 hPa | 0 mm | - | 516 W/m² | - |
| 1777908526 | 21.11° C | 61% | 1015.4 hPa | 0 mm | - | 457 W/m² | - |
| 1777908224 | 21.11° C | 64% | 1015.3 hPa | 0 mm | - | 415 W/m² | - |
| 1777907920 | 21.67° C | 63% | 1015.4 hPa | 0 mm | - | 473 W/m² | - |
| 1777907615 | 20.56° C | 62% | 1015.5 hPa | 0 mm | - | 434 W/m² | - |
| 1777907311 | 21.11° C | 62% | 1015.5 hPa | 0 mm | - | 421 W/m² | - |
| 1777907008 | 21.11° C | 62% | 1015.7 hPa | 0 mm | - | 444 W/m² | - |
| 1777906706 | 20.56° C | 64% | 1015.5 hPa | 0 mm | - | 421 W/m² | - |
| 1777906401 | 20.56° C | 66% | 1015.5 hPa | 0 mm | - | 398 W/m² | - |
| 1777906098 | 20° C | 64% | 1015.5 hPa | 0 mm | - | 346 W/m² | - |
| 1777905795 | 20° C | 65% | 1015.6 hPa | 0 mm | - | 328 W/m² | - |
| 1777905493 | 20° C | 66% | 1015.4 hPa | 0 mm | - | 315 W/m² | - |
| 1777905189 | 20° C | 66% | 1015.6 hPa | 0 mm | - | 325 W/m² | - |
| 1777904887 | 20° C | 67% | 1015.5 hPa | 0 mm | - | 315 W/m² | - |
| 1777904583 | 20° C | 67% | 1015.4 hPa | 0 mm | - | 328 W/m² | - |
| 1777904280 | 19.44° C | 66% | 1015.3 hPa | 0 mm | - | 324 W/m² | - |
| 1777903978 | 19.44° C | 68% | 1015.5 hPa | 0 mm | - | 290 W/m² | - |
| 1777903674 | 19.44° C | 66% | 1015.5 hPa | 0 mm | - | 268 W/m² | - |
| 1777903370 | 18.89° C | 69% | 1015.6 hPa | 0 mm | - | 265 W/m² | - |
* Rain latest hour (hover to see other rain measurements)
** Current wind speed in m/s (hover to see current wind gust speed)